createdAt,value
2023-09-09T00:02:25.437Z,22.53
2023-09-09T00:04:55.511Z,22.53
2023-09-09T00:07:23.067Z,22.49
2023-09-09T00:09:50.340Z,22.40
2023-09-09T00:12:16.996Z,22.33
2023-09-09T00:14:43.510Z,22.36
2023-09-09T00:17:09.958Z,22.38
2023-09-09T00:19:36.398Z,22.36
2023-09-09T00:22:02.899Z,22.33
2023-09-09T00:24:29.438Z,22.29
2023-09-09T00:26:56.734Z,22.27
2023-09-09T00:29:23.486Z,22.23
2023-09-09T00:31:51.319Z,22.20
2023-09-09T00:34:17.998Z,22.20
2023-09-09T00:36:44.596Z,22.14
2023-09-09T00:39:11.309Z,22.07
2023-09-09T00:41:37.727Z,22.05
2023-09-09T00:44:05.648Z,22.05
2023-09-09T00:46:32.450Z,22.04
2023-09-09T00:49:01.689Z,22.02
2023-09-09T00:51:28.290Z,21.96
2023-09-09T00:53:54.846Z,21.95
2023-09-09T00:56:21.499Z,21.96
2023-09-09T00:58:48.179Z,21.91
2023-09-09T01:01:14.737Z,21.86
2023-09-09T01:03:41.754Z,21.88
2023-09-09T01:06:08.646Z,21.88
2023-09-09T01:08:35.243Z,21.90
2023-09-09T01:11:01.645Z,21.90
2023-09-09T01:13:30.619Z,21.89
2023-09-09T01:15:57.470Z,21.85
2023-09-09T01:18:24.180Z,21.83
2023-09-09T01:20:59.545Z,21.81
2023-09-09T01:23:25.992Z,21.80
2023-09-09T01:25:52.432Z,21.81
2023-09-09T01:28:23.152Z,21.83
2023-09-09T01:30:50.678Z,21.78
2023-09-09T01:33:17.480Z,21.74
2023-09-09T01:35:44.946Z,21.71
2023-09-09T01:38:11.780Z,21.71
2023-09-09T01:40:38.350Z,21.70
2023-09-09T01:43:04.815Z,21.68
2023-09-09T01:45:31.257Z,21.66
2023-09-09T01:47:57.849Z,21.61
2023-09-09T01:50:24.542Z,21.63
2023-09-09T01:52:51.060Z,21.61
2023-09-09T01:55:17.651Z,21.56
2023-09-09T01:57:44.584Z,21.49
2023-09-09T02:00:12.995Z,21.44
2023-09-09T02:02:39.557Z,21.48
2023-09-09T02:05:06.420Z,21.44
2023-09-09T02:07:32.983Z,21.42
2023-09-09T02:10:02.474Z,21.46
2023-09-09T02:12:29.537Z,21.46
2023-09-09T02:14:56.061Z,21.43
2023-09-09T02:17:22.539Z,21.36
2023-09-09T02:19:55.135Z,21.34
2023-09-09T02:22:21.653Z,21.31
2023-09-09T02:24:48.565Z,21.31
2023-09-09T02:27:15.026Z,21.30
2023-09-09T02:29:41.596Z,21.28
2023-09-09T02:32:08.152Z,21.22
2023-09-09T02:34:34.633Z,21.21
2023-09-09T02:37:19.811Z,21.20
2023-09-09T02:39:50.644Z,21.18
2023-09-09T02:42:19.356Z,21.19
2023-09-09T02:44:45.913Z,21.16
2023-09-09T02:47:14.322Z,21.17
2023-09-09T02:49:41.650Z,21.13
2023-09-09T02:52:08.556Z,21.10
2023-09-09T02:54:35.949Z,21.10
2023-09-09T02:57:04.832Z,21.09
2023-09-09T02:59:34.452Z,21.08
2023-09-09T03:02:01.377Z,21.03
2023-09-09T03:04:28.018Z,20.98
2023-09-09T03:06:54.602Z,20.93
2023-09-09T03:09:22.010Z,20.93
2023-09-09T03:11:48.575Z,20.91
2023-09-09T03:14:14.994Z,20.91
2023-09-09T03:16:41.512Z,20.88
2023-09-09T03:19:07.990Z,20.85
2023-09-09T03:21:34.514Z,20.86
2023-09-09T03:24:00.929Z,20.83
2023-09-09T03:26:27.449Z,20.77
2023-09-09T03:28:53.987Z,20.72
2023-09-09T03:31:20.608Z,20.69
2023-09-09T03:33:47.220Z,20.69
2023-09-09T03:36:13.660Z,20.64
2023-09-09T03:38:40.507Z,20.61
2023-09-09T03:41:07.957Z,20.61
2023-09-09T03:43:37.121Z,20.62
2023-09-09T03:46:04.238Z,20.59
2023-09-09T03:48:31.494Z,20.58
2023-09-09T03:51:00.241Z,20.55
2023-09-09T03:53:27.390Z,20.49
2023-09-09T03:55:54.781Z,20.47
2023-09-09T03:58:21.708Z,20.46
2023-09-09T04:00:49.680Z,20.45
2023-09-09T04:03:16.280Z,20.44
2023-09-09T04:05:45.157Z,20.40
2023-09-09T04:08:13.558Z,20.37
2023-09-09T04:10:39.987Z,20.35
2023-09-09T04:13:06.413Z,20.35
2023-09-09T04:15:32.816Z,20.31
2023-09-09T04:17:59.970Z,20.29
2023-09-09T04:20:26.661Z,20.26
2023-09-09T04:22:53.074Z,20.25
2023-09-09T04:25:19.567Z,20.24
2023-09-09T04:27:46.019Z,20.25
2023-09-09T04:30:13.136Z,20.22
2023-09-09T04:32:39.755Z,20.15
2023-09-09T04:35:06.480Z,20.10
2023-09-09T04:37:33.685Z,20.05
2023-09-09T04:40:00.350Z,20.05
2023-09-09T04:42:27.245Z,20.04
2023-09-09T04:44:53.705Z,20.04
2023-09-09T04:47:21.008Z,20.01
2023-09-09T04:49:47.473Z,19.97
2023-09-09T04:52:13.935Z,19.92
2023-09-09T04:54:40.948Z,19.89
2023-09-09T04:57:07.404Z,19.84
2023-09-09T04:59:34.596Z,19.81
2023-09-09T05:02:01.221Z,19.77
2023-09-09T05:04:27.933Z,19.74
2023-09-09T05:06:54.947Z,19.74
2023-09-09T05:09:21.605Z,19.73
2023-09-09T05:11:48.125Z,19.75
2023-09-09T05:14:14.643Z,19.73
2023-09-09T05:16:41.269Z,19.70
2023-09-09T05:19:07.786Z,19.64
2023-09-09T05:21:34.232Z,19.59
2023-09-09T05:24:00.662Z,19.55
2023-09-09T05:26:27.024Z,19.52
2023-09-09T05:28:53.486Z,19.53
2023-09-09T05:31:20.011Z,19.54
2023-09-09T05:33:46.696Z,19.55
2023-09-09T05:36:13.301Z,19.59
2023-09-09T05:38:39.751Z,19.62
2023-09-09T05:41:06.197Z,19.62
2023-09-09T05:43:32.725Z,19.57
2023-09-09T05:46:01.210Z,19.48
2023-09-09T05:48:28.198Z,19.46
2023-09-09T05:50:57.502Z,19.49
2023-09-09T05:53:24.161Z,19.55
2023-09-09T05:55:50.838Z,19.56
2023-09-09T05:58:17.315Z,19.55
2023-09-09T06:00:43.824Z,19.49
2023-09-09T06:03:10.507Z,19.41
2023-09-09T06:05:37.057Z,19.35
2023-09-09T06:08:03.829Z,19.38
2023-09-09T06:10:30.385Z,19.44
2023-09-09T06:12:56.883Z,19.47
2023-09-09T06:15:23.433Z,19.49
2023-09-09T06:17:50.738Z,19.48
2023-09-09T06:20:17.303Z,19.47
2023-09-09T06:22:43.731Z,19.48
2023-09-09T06:25:10.651Z,19.35
2023-09-09T06:27:37.087Z,19.45
2023-09-09T06:30:03.719Z,19.53
2023-09-09T06:32:30.234Z,19.58
2023-09-09T06:34:56.686Z,19.64
2023-09-09T06:37:23.200Z,19.62
2023-09-09T06:39:49.754Z,19.61
2023-09-09T06:42:16.225Z,19.61
2023-09-09T06:44:42.766Z,19.63
2023-09-09T06:47:11.609Z,19.63
2023-09-09T06:49:38.256Z,19.61
2023-09-09T06:52:05.123Z,19.62
2023-09-09T06:54:31.542Z,19.63
2023-09-09T06:56:58.146Z,19.63
2023-09-09T06:59:25.221Z,19.70
2023-09-09T07:01:52.270Z,19.74
2023-09-09T07:04:18.833Z,19.82
2023-09-09T07:06:56.760Z,19.90
2023-09-09T07:09:31.641Z,19.93
2023-09-09T07:12:02.606Z,19.97
2023-09-09T07:14:29.038Z,20.02
2023-09-09T07:16:55.562Z,20.08
2023-09-09T07:19:22.082Z,20.12
2023-09-09T07:21:48.577Z,20.13
2023-09-09T07:24:15.034Z,20.14
2023-09-09T07:26:41.492Z,20.16
2023-09-09T07:29:07.952Z,20.20
2023-09-09T07:31:34.482Z,20.22
2023-09-09T07:34:00.958Z,20.26
2023-09-09T07:36:27.414Z,20.32
2023-09-09T07:38:54.281Z,20.40
2023-09-09T07:41:20.782Z,20.43
2023-09-09T07:43:49.858Z,20.48
2023-09-09T07:46:16.448Z,20.52
2023-09-09T07:48:43.046Z,20.59
2023-09-09T07:51:09.594Z,20.62
2023-09-09T07:53:36.394Z,20.68
2023-09-09T07:56:04.028Z,20.71
2023-09-09T07:58:30.507Z,20.74
2023-09-09T08:01:06.742Z,20.77
2023-09-09T08:03:33.543Z,20.83
2023-09-09T08:06:07.280Z,20.86
2023-09-09T08:08:36.752Z,20.89
2023-09-09T08:11:04.127Z,20.94
2023-09-09T08:13:30.724Z,20.98
2023-09-09T08:15:59.098Z,21.06
2023-09-09T08:18:25.660Z,21.14
2023-09-09T08:20:52.320Z,21.20
2023-09-09T08:23:19.567Z,21.28
2023-09-09T08:25:46.279Z,21.33
2023-09-09T08:28:12.985Z,21.37
2023-09-09T08:30:39.505Z,21.44
2023-09-09T08:33:05.952Z,21.50
2023-09-09T08:35:32.793Z,21.57
2023-09-09T08:38:01.440Z,21.71
2023-09-09T08:40:27.931Z,21.73
2023-09-09T08:43:09.803Z,21.78
2023-09-09T08:45:42.276Z,21.84
2023-09-09T08:48:11.868Z,21.87
2023-09-09T08:50:41.623Z,21.91
2023-09-09T08:53:13.794Z,21.96
2023-09-09T08:55:41.358Z,22.02
2023-09-09T08:58:08.036Z,22.08
2023-09-09T09:00:35.817Z,22.11
2023-09-09T09:03:03.369Z,22.19
2023-09-09T09:05:34.077Z,22.24
2023-09-09T09:08:04.505Z,22.31
2023-09-09T09:10:31.126Z,22.40
2023-09-09T09:12:57.538Z,22.44
2023-09-09T09:15:25.834Z,22.49
2023-09-09T09:17:55.370Z,22.53
2023-09-09T09:22:51.597Z,22.60
2023-09-09T09:25:24.760Z,22.66
2023-09-09T09:27:51.375Z,22.69
2023-09-09T09:30:27.584Z,22.77
2023-09-09T09:32:55.924Z,22.83
2023-09-09T09:35:33.525Z,22.90
2023-09-09T09:38:01.877Z,22.98
2023-09-09T09:40:30.800Z,23.03
2023-09-09T09:42:57.686Z,23.12
2023-09-09T09:45:28.077Z,23.14
2023-09-09T09:47:55.517Z,23.18
2023-09-09T09:50:26.902Z,23.21
2023-09-09T09:53:00.416Z,23.31
2023-09-09T09:55:28.176Z,23.34
2023-09-09T09:57:57.184Z,23.38
2023-09-09T10:00:24.939Z,23.40
2023-09-09T10:02:54.071Z,23.45
2023-09-09T10:05:23.544Z,23.46
2023-09-09T10:08:06.666Z,23.52
2023-09-09T10:10:36.540Z,23.54
2023-09-09T10:13:09.123Z,23.60
2023-09-09T10:15:36.548Z,23.62
2023-09-09T10:18:04.873Z,23.64
2023-09-09T10:20:31.860Z,23.68
2023-09-09T10:23:01.969Z,23.74
2023-09-09T10:25:29.294Z,23.84
2023-09-09T10:27:56.800Z,23.86
2023-09-09T10:30:24.777Z,23.88
2023-09-09T10:32:51.830Z,23.99
2023-09-09T10:35:19.233Z,24.05
2023-09-09T10:37:47.651Z,24.05
2023-09-09T10:40:15.921Z,24.07
2023-09-09T10:42:44.652Z,24.10
2023-09-09T10:45:26.438Z,24.15
2023-09-09T10:48:04.650Z,24.17
2023-09-09T10:50:54.298Z,24.17
2023-09-09T10:53:21.164Z,24.21
2023-09-09T10:55:48.436Z,24.32
2023-09-09T10:58:20.055Z,24.32
2023-09-09T11:00:50.125Z,24.34
2023-09-09T11:03:23.412Z,24.36
2023-09-09T11:06:00.953Z,24.38
2023-09-09T11:08:31.624Z,24.47
2023-09-09T11:11:35.122Z,24.51
2023-09-09T11:14:06.713Z,24.52
2023-09-09T11:16:42.922Z,24.56
2023-09-09T11:19:14.611Z,24.60
2023-09-09T11:21:44.527Z,24.61
2023-09-09T11:24:11.668Z,24.62
2023-09-09T11:26:39.945Z,24.69
2023-09-09T11:29:12.375Z,24.70
2023-09-09T11:31:48.225Z,24.75
2023-09-09T11:34:15.920Z,24.77
2023-09-09T11:36:42.877Z,24.78
2023-09-09T11:39:09.328Z,24.82
2023-09-09T11:41:37.306Z,24.86
2023-09-09T11:44:05.013Z,24.88
2023-09-09T11:46:42.609Z,24.89
2023-09-09T11:49:09.928Z,24.90
2023-09-09T11:51:36.461Z,24.99
2023-09-09T11:54:04.162Z,25.03
2023-09-09T11:56:32.985Z,25.04
2023-09-09T11:59:07.221Z,25.13
2023-09-09T12:01:47.750Z,25.12
2023-09-09T12:04:15.677Z,25.15
2023-09-09T12:06:44.492Z,25.15
2023-09-09T12:09:11.525Z,25.18
2023-09-09T12:11:40.950Z,25.18
2023-09-09T12:14:07.905Z,25.26
2023-09-09T12:16:35.792Z,25.35
2023-09-09T12:19:02.392Z,25.39
2023-09-09T12:21:30.739Z,25.45
2023-09-09T12:24:01.282Z,25.50
2023-09-09T12:26:28.093Z,25.53
2023-09-09T12:29:12.300Z,25.55
2023-09-09T12:31:59.091Z,25.61
2023-09-09T12:34:27.507Z,25.65
2023-09-09T12:36:59.179Z,25.71
2023-09-09T12:39:30.121Z,25.68
2023-09-09T12:42:04.185Z,25.75
2023-09-09T12:44:47.791Z,25.81
2023-09-09T12:47:20.034Z,25.80
2023-09-09T12:49:46.573Z,25.85
2023-09-09T12:52:13.079Z,25.88
2023-09-09T12:54:39.632Z,25.88
2023-09-09T12:57:06.226Z,25.91
2023-09-09T12:59:32.714Z,25.99
2023-09-09T13:02:02.136Z,26.02
2023-09-09T13:04:28.640Z,26.03
2023-09-09T13:06:55.550Z,26.09
2023-09-09T13:09:22.013Z,26.11
2023-09-09T13:11:48.731Z,26.11
2023-09-09T13:14:25.592Z,26.10
2023-09-09T13:16:53.700Z,26.11
2023-09-09T13:19:20.922Z,26.07
2023-09-09T13:21:47.489Z,26.10
2023-09-09T13:24:13.992Z,26.11
2023-09-09T13:26:40.506Z,26.24
2023-09-09T13:29:07.068Z,26.23
2023-09-09T13:31:33.631Z,26.24
2023-09-09T13:34:00.305Z,26.22
2023-09-09T13:36:26.901Z,26.23
2023-09-09T13:38:53.379Z,26.25
2023-09-09T13:41:20.369Z,26.25
2023-09-09T13:43:46.846Z,26.27
2023-09-09T13:46:14.228Z,26.29
2023-09-09T13:48:41.264Z,26.36
2023-09-09T13:51:10.721Z,26.34
2023-09-09T13:53:37.267Z,26.35
2023-09-09T13:56:04.023Z,26.36
2023-09-09T13:58:30.510Z,26.31
2023-09-09T14:01:00.961Z,26.32
2023-09-09T14:03:27.620Z,26.33
2023-09-09T14:05:57.861Z,26.35
2023-09-09T14:08:24.318Z,26.33
2023-09-09T14:10:50.764Z,26.36
2023-09-09T14:13:17.235Z,26.38
2023-09-09T14:15:44.185Z,26.39
2023-09-09T14:18:15.264Z,26.41
2023-09-09T14:20:44.116Z,26.43
2023-09-09T14:23:10.894Z,26.48
2023-09-09T14:25:38.373Z,26.49
2023-09-09T14:28:05.751Z,26.51
2023-09-09T14:30:32.971Z,26.51
2023-09-09T14:33:01.883Z,26.49
2023-09-09T14:35:28.428Z,26.50
2023-09-09T14:37:55.050Z,26.50
2023-09-09T14:40:21.829Z,26.56
2023-09-09T14:42:48.263Z,26.53
2023-09-09T14:45:14.872Z,26.52
2023-09-09T14:47:41.539Z,26.51
2023-09-09T14:50:08.519Z,26.49
2023-09-09T14:52:35.184Z,26.47
2023-09-09T14:55:02.370Z,26.48
2023-09-09T14:57:28.796Z,26.47
2023-09-09T14:59:55.145Z,26.49
2023-09-09T15:02:21.620Z,26.50
2023-09-09T15:04:48.099Z,26.55
2023-09-09T15:07:14.643Z,26.52
2023-09-09T15:09:41.107Z,26.52
2023-09-09T15:12:09.181Z,26.52
2023-09-09T15:14:36.922Z,26.52
2023-09-09T15:17:05.137Z,26.51
2023-09-09T15:19:32.292Z,26.53
2023-09-09T15:22:02.371Z,26.56
2023-09-09T15:24:28.942Z,26.53
2023-09-09T15:26:55.480Z,26.52
2023-09-09T15:29:21.934Z,26.52
2023-09-09T15:31:48.465Z,26.52
2023-09-09T15:34:15.047Z,26.52
2023-09-09T15:36:41.582Z,26.52
2023-09-09T15:39:10.953Z,26.54
2023-09-09T15:41:38.733Z,26.54
2023-09-09T15:44:05.824Z,26.53
2023-09-09T15:46:32.443Z,26.53
2023-09-09T15:48:59.062Z,26.55
2023-09-09T15:51:25.949Z,26.53
2023-09-09T15:53:52.887Z,26.52
2023-09-09T15:56:19.345Z,26.53
2023-09-09T15:58:46.053Z,26.50
2023-09-09T16:01:12.595Z,26.50
2023-09-09T16:03:39.614Z,26.51
2023-09-09T16:06:08.428Z,26.50
2023-09-09T16:08:36.869Z,26.48
2023-09-09T16:11:05.158Z,26.47
2023-09-09T16:13:32.819Z,26.46
2023-09-09T16:16:04.368Z,26.46
2023-09-09T16:18:32.276Z,26.47
2023-09-09T16:21:00.169Z,26.47
2023-09-09T16:23:27.079Z,26.47
2023-09-09T16:25:56.623Z,26.47
2023-09-09T16:28:23.852Z,26.46
2023-09-09T16:30:50.937Z,26.44
2023-09-09T16:33:17.460Z,26.44
2023-09-09T16:35:45.165Z,26.40
2023-09-09T16:38:11.917Z,26.40
2023-09-09T16:40:39.896Z,26.41
2023-09-09T16:43:06.845Z,26.40
2023-09-09T16:45:33.355Z,26.41
2023-09-09T16:48:04.077Z,26.42
2023-09-09T16:50:31.397Z,26.40
2023-09-09T16:52:58.676Z,26.36
2023-09-09T16:55:25.423Z,26.34
2023-09-09T16:57:51.939Z,26.34
2023-09-09T17:00:18.630Z,26.35
2023-09-09T17:02:45.307Z,26.36
2023-09-09T17:05:11.976Z,26.36
2023-09-09T17:07:38.464Z,26.34
2023-09-09T17:10:05.411Z,26.32
2023-09-09T17:12:31.892Z,26.29
2023-09-09T17:14:58.761Z,26.23
2023-09-09T17:17:25.407Z,26.23
2023-09-09T17:19:51.988Z,26.23
2023-09-09T17:22:18.540Z,26.19
2023-09-09T17:24:45.080Z,26.16
2023-09-09T17:27:11.941Z,26.15
2023-09-09T17:29:38.363Z,26.11
2023-09-09T17:32:05.485Z,26.07
2023-09-09T17:34:42.416Z,26.03
2023-09-09T17:37:09.506Z,25.99
2023-09-09T17:39:36.109Z,25.93
2023-09-09T17:42:02.568Z,25.88
2023-09-09T17:44:29.041Z,25.83
2023-09-09T17:46:55.633Z,25.80
2023-09-09T17:49:26.455Z,25.78
2023-09-09T17:51:54.125Z,25.76
2023-09-09T17:54:20.885Z,25.71
2023-09-09T17:56:48.277Z,25.69
2023-09-09T17:59:14.815Z,25.64
2023-09-09T18:01:41.457Z,25.60
2023-09-09T18:04:07.995Z,25.58
2023-09-09T18:06:34.456Z,25.55
2023-09-09T18:09:00.915Z,25.50
2023-09-09T18:11:27.367Z,25.46
2023-09-09T18:13:53.910Z,25.41
2023-09-09T18:16:21.830Z,25.37
2023-09-09T18:18:48.404Z,25.34
2023-09-09T18:21:14.828Z,25.32
2023-09-09T18:23:41.472Z,25.27
2023-09-09T18:26:08.255Z,25.25
2023-09-09T18:28:34.807Z,25.22
2023-09-09T18:31:03.950Z,25.20
2023-09-09T18:33:31.386Z,25.17
2023-09-09T18:35:59.089Z,25.13
2023-09-09T18:38:26.359Z,25.09
2023-09-09T18:40:54.313Z,25.04
2023-09-09T18:43:21.370Z,25.00
2023-09-09T18:45:49.015Z,24.97
2023-09-09T18:48:16.979Z,24.96
2023-09-09T18:50:43.803Z,24.92
2023-09-09T18:53:10.513Z,24.88
2023-09-09T18:55:37.029Z,24.87
2023-09-09T18:58:03.963Z,24.86
2023-09-09T19:00:30.577Z,24.86
2023-09-09T19:02:59.473Z,24.86
2023-09-09T19:05:26.492Z,24.81
2023-09-09T19:07:53.210Z,24.76
2023-09-09T19:10:19.791Z,24.71
2023-09-09T19:12:46.295Z,24.68
2023-09-09T19:15:14.045Z,24.66
2023-09-09T19:17:40.618Z,24.63
2023-09-09T19:20:08.773Z,24.63
2023-09-09T19:22:35.284Z,24.58
2023-09-09T19:25:01.912Z,24.58
2023-09-09T19:27:28.474Z,24.53
2023-09-09T19:29:55.068Z,24.47
2023-09-09T19:32:21.712Z,24.43
2023-09-09T19:34:50.693Z,24.38
2023-09-09T19:37:17.194Z,24.40
2023-09-09T19:39:44.191Z,24.37
2023-09-09T19:42:13.269Z,24.33
2023-09-09T19:44:39.713Z,24.33
2023-09-09T19:47:06.375Z,24.33
2023-09-09T19:49:33.073Z,24.32
2023-09-09T19:52:02.816Z,24.30
2023-09-09T19:54:29.324Z,24.28
2023-09-09T19:56:55.782Z,24.22
2023-09-09T19:59:22.818Z,24.20
2023-09-09T20:01:49.312Z,24.18
2023-09-09T20:04:15.881Z,24.15
2023-09-09T20:06:43.297Z,24.12
2023-09-09T20:09:09.886Z,24.10
2023-09-09T20:11:36.269Z,24.09
2023-09-09T20:14:02.840Z,24.08
2023-09-09T20:16:29.336Z,24.04
2023-09-09T20:18:55.742Z,24.02
2023-09-09T20:21:22.231Z,23.98
2023-09-09T20:23:48.705Z,23.94
2023-09-09T20:26:15.181Z,23.94
2023-09-09T20:28:42.165Z,23.94
2023-09-09T20:31:09.030Z,23.92
2023-09-09T20:33:35.584Z,23.89
2023-09-09T20:36:04.934Z,23.85
2023-09-09T20:38:31.871Z,23.84
2023-09-09T20:41:00.797Z,23.81
2023-09-09T20:43:27.401Z,23.81
2023-09-09T20:45:54.226Z,23.79
2023-09-09T20:48:20.684Z,23.79
2023-09-09T20:50:47.619Z,23.78
2023-09-09T20:53:14.098Z,23.71
2023-09-09T20:55:41.396Z,23.65
2023-09-09T20:58:08.674Z,23.64
2023-09-09T21:00:35.231Z,23.61
2023-09-09T21:03:01.714Z,23.56
2023-09-09T21:05:28.191Z,23.52
2023-09-09T21:07:54.692Z,23.52
2023-09-09T21:10:21.163Z,23.52
2023-09-09T21:12:48.326Z,23.50
2023-09-09T21:15:16.612Z,23.47
2023-09-09T21:17:43.472Z,23.45
2023-09-09T21:20:11.900Z,23.43
2023-09-09T21:22:39.436Z,23.39
2023-09-09T21:25:07.135Z,23.33
2023-09-09T21:27:33.777Z,23.28
2023-09-09T21:30:00.413Z,23.25
2023-09-09T21:32:27.187Z,23.25
2023-09-09T21:34:53.753Z,23.18
2023-09-09T21:37:20.983Z,23.20
2023-09-09T21:39:48.213Z,23.19
2023-09-09T21:42:14.831Z,23.12
2023-09-09T21:44:43.034Z,23.11
2023-09-09T21:47:09.731Z,23.14
2023-09-09T21:49:36.446Z,23.16
2023-09-09T21:52:03.886Z,23.18
2023-09-09T21:54:30.423Z,23.21
2023-09-09T21:56:56.951Z,23.19
2023-09-09T21:59:23.439Z,23.16
2023-09-09T22:01:50.005Z,23.11
2023-09-09T22:04:16.486Z,23.09
2023-09-09T22:06:43.077Z,23.03
2023-09-09T22:09:09.525Z,22.98
2023-09-09T22:11:36.018Z,22.92
2023-09-09T22:14:02.520Z,22.89
2023-09-09T22:16:29.140Z,22.86
2023-09-09T22:18:55.654Z,22.85
2023-09-09T22:21:22.540Z,22.83
2023-09-09T22:23:49.105Z,22.81
2023-09-09T22:26:29.588Z,22.79
2023-09-09T22:29:02.206Z,22.80
2023-09-09T22:31:28.835Z,22.80
2023-09-09T22:33:55.454Z,22.79
2023-09-09T22:36:21.971Z,22.74
2023-09-09T22:38:48.516Z,22.73
2023-09-09T22:41:17.566Z,22.70
2023-09-09T22:43:44.380Z,22.65
2023-09-09T22:46:10.994Z,22.65
2023-09-09T22:48:38.400Z,22.66
2023-09-09T22:51:06.524Z,22.65
2023-09-09T22:53:33.864Z,22.60
2023-09-09T22:56:01.417Z,22.59
2023-09-09T22:58:28.125Z,22.60
2023-09-09T23:00:58.008Z,22.57
2023-09-09T23:03:27.606Z,22.58
2023-09-09T23:05:54.221Z,22.55
2023-09-09T23:08:20.687Z,22.51
2023-09-09T23:10:47.209Z,22.49
2023-09-09T23:13:14.088Z,22.45
2023-09-09T23:15:41.046Z,22.39
2023-09-09T23:18:07.859Z,22.36
2023-09-09T23:20:34.903Z,22.35
2023-09-09T23:23:01.500Z,22.31
2023-09-09T23:25:28.052Z,22.31
2023-09-09T23:27:54.684Z,22.34
2023-09-09T23:30:21.251Z,22.29
2023-09-09T23:32:48.280Z,22.30
2023-09-09T23:35:14.934Z,22.31
2023-09-09T23:37:41.765Z,22.25
2023-09-09T23:40:09.855Z,22.20
2023-09-09T23:42:36.969Z,22.09
2023-09-09T23:45:03.881Z,22.09
2023-09-09T23:47:30.340Z,22.08
2023-09-09T23:49:56.926Z,22.06
2023-09-09T23:52:23.829Z,22.08
2023-09-09T23:54:50.377Z,22.09
2023-09-09T23:57:16.897Z,22.09
2023-09-09T23:59:43.393Z,22.08
